createdAt,value
2017-04-30T00:09:59.211Z,2.5
2017-04-30T00:20:14.059Z,2.3
2017-04-30T00:30:27.738Z,2.3
2017-04-30T00:40:41.485Z,2.1
2017-04-30T00:50:56.753Z,1.6
2017-04-30T01:01:11.431Z,2.2
2017-04-30T01:11:26.155Z,2.3
2017-04-30T01:21:40.300Z,1.8
2017-04-30T01:31:54.704Z,2
2017-04-30T01:42:09.677Z,2.2
2017-04-30T01:52:23.344Z,3
2017-04-30T02:02:38.038Z,4.1
2017-04-30T02:12:53.600Z,3.8
2017-04-30T02:23:08.805Z,3.1
2017-04-30T02:33:23.989Z,2.9
2017-04-30T02:43:37.803Z,3.2
2017-04-30T02:53:51.591Z,3.6
2017-04-30T03:04:07.054Z,3.6
2017-04-30T03:14:21.112Z,3.4
2017-04-30T03:24:36.126Z,3
2017-04-30T03:34:51.154Z,3.2
2017-04-30T03:45:05.232Z,3.5
2017-04-30T03:55:19.429Z,3.7
2017-04-30T04:05:33.214Z,3.8
2017-04-30T04:15:47.661Z,3.6
2017-04-30T04:26:01.480Z,3.9
2017-04-30T04:36:17.072Z,4.2
2017-04-30T04:46:32.560Z,4.3
2017-04-30T04:56:46.318Z,4.5
2017-04-30T05:07:00.261Z,4.9
2017-04-30T05:17:15.873Z,4.9
2017-04-30T05:27:30.261Z,5
2017-04-30T05:37:45.703Z,5.9
2017-04-30T05:48:00.619Z,6.5
2017-04-30T05:58:15.950Z,6.7
2017-04-30T06:08:29.706Z,6.8
2017-04-30T06:18:43.940Z,7.6
2017-04-30T06:28:59.053Z,8.2
2017-04-30T06:39:13.729Z,8.5
2017-04-30T06:49:28.685Z,9.1
2017-04-30T06:59:43.727Z,9.4
2017-04-30T07:09:58.795Z,10.4
2017-04-30T07:20:12.819Z,11.1
2017-04-30T07:30:28.085Z,11.8
2017-04-30T07:40:43.849Z,12.4
2017-04-30T07:50:58.951Z,12.7
2017-04-30T08:01:13.200Z,13.1
2017-04-30T08:11:27.828Z,12.9
2017-04-30T08:21:43.058Z,13.5
2017-04-30T08:31:58.249Z,14.3
2017-04-30T08:42:13.869Z,14.8
2017-04-30T08:52:28.599Z,15
2017-04-30T09:02:43.488Z,15.1
2017-04-30T09:12:59.353Z,15.3
2017-04-30T09:23:14.916Z,15.9
2017-04-30T09:33:30.297Z,15.9
2017-04-30T09:43:45.792Z,16.8
2017-04-30T09:54:00.218Z,16.3
2017-04-30T10:04:15.878Z,16.2
2017-04-30T10:14:31.528Z,17.2
2017-04-30T10:24:46.426Z,16.6
2017-04-30T10:35:00.403Z,17.4
2017-04-30T10:45:14.510Z,17.2
2017-04-30T10:55:29.044Z,18.4
2017-04-30T11:05:43.095Z,17.5
2017-04-30T11:15:57.613Z,17.1
2017-04-30T11:26:12.239Z,17.8
2017-04-30T11:36:26.767Z,17.8
2017-04-30T11:46:41.370Z,17.4
2017-04-30T11:56:55.841Z,17.7
2017-04-30T12:07:10.092Z,18.2
2017-04-30T12:17:24.493Z,17.8
2017-04-30T12:27:40.028Z,18.2
2017-04-30T12:37:54.275Z,18.4
2017-04-30T12:48:09.804Z,17.9
2017-04-30T12:58:25.554Z,18.5
2017-04-30T13:08:40.794Z,17.8
2017-04-30T13:18:55.240Z,17.1
2017-04-30T13:29:09.782Z,19.3
2017-04-30T13:39:25.303Z,18.8
2017-04-30T13:49:40.530Z,18.6
2017-04-30T13:59:54.909Z,18.4
2017-04-30T14:10:08.922Z,19.3
2017-04-30T14:20:23.555Z,18.3
2017-04-30T14:30:37.967Z,18.9
2017-04-30T14:40:53.701Z,19.5
2017-04-30T14:51:09.398Z,19.1
2017-04-30T15:01:23.336Z,19.4
2017-04-30T15:11:37.918Z,19.1
2017-04-30T15:21:51.909Z,19
2017-04-30T15:32:07.139Z,18.9
2017-04-30T15:42:21.509Z,18.7
2017-04-30T15:52:36.887Z,18.4
2017-04-30T16:02:51.728Z,18.7
2017-04-30T16:13:05.911Z,18.7
2017-04-30T16:23:21.021Z,18.2
2017-04-30T16:33:36.817Z,18.4
2017-04-30T16:43:51.623Z,18.2
2017-04-30T16:54:07.009Z,17.7
2017-04-30T17:04:22.420Z,17.9
2017-04-30T17:14:38.013Z,17.9
2017-04-30T17:24:52.812Z,17.4
2017-04-30T17:35:06.994Z,17
2017-04-30T17:45:22.134Z,16.6
2017-04-30T17:55:36.806Z,16.5
2017-04-30T18:05:52.419Z,16.2
2017-04-30T18:16:06.227Z,15.9
2017-04-30T18:26:20.027Z,15.5
2017-04-30T18:36:34.421Z,15.5
2017-04-30T18:46:49.532Z,15.4
2017-04-30T18:57:04.480Z,15.3
2017-04-30T19:07:19.672Z,14.8
2017-04-30T19:17:33.882Z,14.8
2017-04-30T19:27:49.186Z,14.5
2017-04-30T19:38:02.997Z,14.4
2017-04-30T19:48:18.225Z,13.9
2017-04-30T19:58:32.523Z,14
2017-04-30T20:08:47.286Z,13.9
2017-04-30T20:19:02.591Z,13.9
2017-04-30T20:29:17.846Z,13.6
2017-04-30T20:39:32.847Z,13.3
2017-04-30T20:49:47.002Z,13.2
2017-04-30T21:00:00.910Z,13
2017-04-30T21:10:14.843Z,13.1
2017-04-30T21:20:29.231Z,13
2017-04-30T21:30:43.755Z,12.9
2017-04-30T21:40:58.779Z,12.9
2017-04-30T21:51:13.889Z,12.9
2017-04-30T22:01:28.592Z,12.3
2017-04-30T22:11:42.401Z,12
2017-04-30T22:21:57.666Z,11.9
2017-04-30T22:32:12.236Z,11.7
2017-04-30T22:42:26.913Z,11.7
2017-04-30T22:52:41.928Z,11.8
2017-04-30T23:02:57.029Z,11.5
2017-04-30T23:13:11.600Z,11.7
2017-04-30T23:23:25.548Z,11.4
2017-04-30T23:33:39.941Z,11.6
2017-04-30T23:43:55.370Z,11.4
2017-04-30T23:54:10.632Z,11.2
